createdAt,value
2022-09-21T00:01:21.795Z,3.38
2022-09-21T00:03:54.465Z,3.36
2022-09-21T00:06:22.728Z,3.43
2022-09-21T00:08:51.512Z,3.51
2022-09-21T00:11:21.091Z,3.63
2022-09-21T00:13:48.707Z,3.83
2022-09-21T00:16:17.383Z,4.04
2022-09-21T00:18:45.425Z,4.04
2022-09-21T00:21:14.858Z,3.78
2022-09-21T00:26:29.186Z,3.79
2022-09-21T00:28:58.618Z,3.58
2022-09-21T00:31:26.667Z,3.56
2022-09-21T00:33:54.529Z,3.47
2022-09-21T00:36:23.619Z,3.27
2022-09-21T00:38:59.039Z,3.14
2022-09-21T00:41:31.019Z,3.11
2022-09-21T00:44:16.994Z,3.23
2022-09-21T00:46:45.867Z,3.41
2022-09-21T00:49:13.885Z,3.55
2022-09-21T00:51:42.498Z,3.49
2022-09-21T00:54:15.063Z,3.34
2022-09-21T00:56:43.566Z,3.26
2022-09-21T00:59:13.555Z,3.24
2022-09-21T01:04:28.917Z,3.11
2022-09-21T01:06:58.183Z,3.17
2022-09-21T01:09:26.789Z,3.19
2022-09-21T01:12:10.645Z,3.17
2022-09-21T01:14:53.895Z,3.28
2022-09-21T01:17:34.376Z,3.29
2022-09-21T01:20:24.648Z,3.25
2022-09-21T01:23:07.889Z,3.23
2022-09-21T01:25:35.378Z,3.23
2022-09-21T01:28:25.818Z,3.32
2022-09-21T01:30:54.897Z,3.38
2022-09-21T01:33:26.473Z,3.38
2022-09-21T01:35:57.412Z,3.32
2022-09-21T01:38:41.362Z,3.33
2022-09-21T01:41:11.647Z,3.32
2022-09-21T01:43:42.882Z,3.38
2022-09-21T01:46:13.871Z,3.41
2022-09-21T01:48:45.457Z,3.44
2022-09-21T01:51:15.342Z,3.51
2022-09-21T01:53:51.846Z,3.51
2022-09-21T01:56:24.384Z,3.53
2022-09-21T01:59:11.332Z,3.57
2022-09-21T02:01:43.786Z,3.58
2022-09-21T02:04:12.659Z,3.60
2022-09-21T02:06:45.338Z,3.67
2022-09-21T02:09:13.661Z,3.76
2022-09-21T02:11:44.212Z,3.80
2022-09-21T02:14:13.393Z,3.83
2022-09-21T02:16:49.522Z,3.88
2022-09-21T02:19:22.371Z,3.92
2022-09-21T02:22:05.668Z,3.98
2022-09-21T02:24:41.573Z,4.05
2022-09-21T02:27:28.283Z,4.11
2022-09-21T02:30:03.088Z,4.15
2022-09-21T02:32:33.799Z,4.17
2022-09-21T02:35:09.868Z,4.22
2022-09-21T02:37:41.961Z,4.25
2022-09-21T02:40:30.253Z,4.24
2022-09-21T02:43:01.213Z,4.28
2022-09-21T02:45:31.386Z,4.30
2022-09-21T02:48:12.564Z,4.33
2022-09-21T02:50:45.633Z,4.35
2022-09-21T02:53:15.699Z,4.36
2022-09-21T02:55:45.148Z,4.37
2022-09-21T02:58:15.034Z,4.40
2022-09-21T03:00:42.544Z,4.36
2022-09-21T03:03:17.631Z,4.20
2022-09-21T03:05:47.013Z,4.12
2022-09-21T03:08:15.044Z,4.27
2022-09-21T03:10:42.620Z,4.28
2022-09-21T03:13:11.031Z,4.28
2022-09-21T03:15:39.167Z,4.29
2022-09-21T03:18:09.764Z,4.38
2022-09-21T03:20:38.848Z,4.50
2022-09-21T03:23:06.615Z,4.52
2022-09-21T03:25:34.240Z,4.49
2022-09-21T03:28:02.822Z,4.51
2022-09-21T03:30:30.692Z,4.50
2022-09-21T03:32:58.986Z,4.61
2022-09-21T03:35:30.380Z,4.66
2022-09-21T03:37:58.331Z,4.70
2022-09-21T03:40:26.806Z,4.73
2022-09-21T03:42:55.370Z,4.64
2022-09-21T03:45:23.315Z,4.61
2022-09-21T03:47:50.810Z,4.64
2022-09-21T03:50:18.844Z,4.68
2022-09-21T03:52:46.433Z,4.71
2022-09-21T03:55:13.956Z,4.72
2022-09-21T03:57:42.047Z,4.75
2022-09-21T04:00:11.396Z,4.74
2022-09-21T04:02:42.454Z,4.72
2022-09-21T04:05:11.321Z,4.70
2022-09-21T04:07:39.757Z,4.80
2022-09-21T04:10:07.967Z,4.88
2022-09-21T04:12:36.703Z,4.96
2022-09-21T04:15:07.790Z,5.07
2022-09-21T04:17:35.313Z,5.13
2022-09-21T04:20:03.122Z,5.20
2022-09-21T04:22:31.729Z,5.28
2022-09-21T04:24:59.304Z,5.35
2022-09-21T04:27:26.878Z,5.40
2022-09-21T04:29:54.774Z,5.45
2022-09-21T04:32:22.456Z,5.49
2022-09-21T04:34:50.405Z,5.53
2022-09-21T04:37:19.050Z,5.56
2022-09-21T04:39:47.094Z,5.58
2022-09-21T04:42:14.660Z,5.63
2022-09-21T04:44:45.187Z,5.65
2022-09-21T04:47:12.738Z,5.70
2022-09-21T04:49:40.323Z,5.69
2022-09-21T04:52:08.460Z,5.70
2022-09-21T04:54:36.031Z,5.82
2022-09-21T04:57:03.575Z,6.01
2022-09-21T04:59:31.545Z,6.17
2022-09-21T05:01:59.002Z,6.33
2022-09-21T05:04:26.554Z,6.49
2022-09-21T05:06:54.491Z,6.67
2022-09-21T05:09:40.860Z,6.82
2022-09-21T05:12:09.349Z,6.98
2022-09-21T05:14:36.964Z,7.14
2022-09-21T05:17:04.523Z,7.39
2022-09-21T05:19:32.463Z,7.46
2022-09-21T05:21:59.965Z,7.71
2022-09-21T05:24:27.599Z,7.78
2022-09-21T05:26:55.550Z,7.86
2022-09-21T05:29:23.196Z,7.87
2022-09-21T05:32:01.744Z,7.85
2022-09-21T05:34:36.896Z,7.81
2022-09-21T05:37:33.970Z,7.74
2022-09-21T05:40:02.136Z,7.91
2022-09-21T05:42:30.474Z,8.15
2022-09-21T05:44:58.147Z,8.12
2022-09-21T05:47:38.105Z,8.17
2022-09-21T05:50:06.209Z,8.31
2022-09-21T05:52:50.851Z,8.16
2022-09-21T05:55:34.879Z,8.31
2022-09-21T05:58:24.331Z,8.54
2022-09-21T06:00:57.266Z,8.87
2022-09-21T06:03:29.665Z,8.98
2022-09-21T06:06:00.184Z,8.98
2022-09-21T06:08:28.384Z,9.09
2022-09-21T06:10:56.259Z,9.42
2022-09-21T06:13:23.926Z,9.61
2022-09-21T06:15:51.819Z,9.77
2022-09-21T06:18:19.382Z,9.78
2022-09-21T06:20:47.256Z,9.72
2022-09-21T06:23:15.463Z,9.46
2022-09-21T06:25:43.061Z,9.48
2022-09-21T06:28:12.211Z,9.29
2022-09-21T06:30:42.493Z,9.54
2022-09-21T06:33:10.126Z,9.90
2022-09-21T06:35:37.749Z,9.87
2022-09-21T06:38:06.924Z,10.03
2022-09-21T06:40:36.010Z,10.35
2022-09-21T06:43:04.213Z,10.43
2022-09-21T06:45:33.450Z,10.21
2022-09-21T06:48:01.117Z,9.93
2022-09-21T06:50:28.617Z,10.03
2022-09-21T06:52:56.500Z,10.18
2022-09-21T06:55:34.244Z,10.70
2022-09-21T06:58:03.254Z,11.57
2022-09-21T07:00:31.190Z,12.19
2022-09-21T07:02:58.842Z,12.18
2022-09-21T07:05:26.983Z,12.10
2022-09-21T07:08:01.202Z,12.60
2022-09-21T07:10:29.315Z,12.75
2022-09-21T07:12:56.867Z,13.18
2022-09-21T07:15:25.896Z,13.63
2022-09-21T07:18:05.041Z,12.92
2022-09-21T07:20:33.317Z,13.58
2022-09-21T07:23:02.087Z,14.59
2022-09-21T07:25:29.634Z,15.43
2022-09-21T07:27:57.233Z,15.09
2022-09-21T07:30:25.370Z,15.21
2022-09-21T07:32:53.058Z,16.20
2022-09-21T07:35:20.848Z,16.63
2022-09-21T07:37:48.886Z,16.71
2022-09-21T07:40:18.419Z,16.40
2022-09-21T07:42:54.005Z,16.59
2022-09-21T07:45:21.890Z,17.02
2022-09-21T07:47:49.980Z,16.61
2022-09-21T07:50:17.550Z,16.93
2022-09-21T07:52:45.070Z,16.27
2022-09-21T07:55:13.203Z,16.62
2022-09-21T07:57:59.604Z,16.63
2022-09-21T08:00:32.908Z,16.70
2022-09-21T08:03:01.586Z,15.96
2022-09-21T08:05:29.090Z,15.57
2022-09-21T08:07:57.525Z,14.66
2022-09-21T08:10:28.317Z,15.38
2022-09-21T08:12:56.922Z,15.85
2022-09-21T08:15:47.075Z,16.46
2022-09-21T08:18:12.693Z,16.16
2022-09-21T08:20:41.336Z,16.83
2022-09-21T08:23:13.315Z,16.80
2022-09-21T08:25:41.408Z,16.14
2022-09-21T08:28:10.032Z,16.65
2022-09-21T08:30:37.940Z,16.48
2022-09-21T08:33:07.472Z,17.25
2022-09-21T08:35:36.701Z,17.22
2022-09-21T08:38:04.310Z,17.24
2022-09-21T08:40:33.013Z,16.86
2022-09-21T08:43:05.189Z,16.12
2022-09-21T08:45:36.042Z,16.62
2022-09-21T08:48:06.710Z,17.00
2022-09-21T08:50:37.594Z,16.98
2022-09-21T08:53:08.689Z,17.33
2022-09-21T08:55:38.067Z,17.05
2022-09-21T08:58:17.421Z,16.92
2022-09-21T09:00:45.582Z,16.84
2022-09-21T09:03:25.642Z,17.26
2022-09-21T09:06:00.123Z,17.37
2022-09-21T09:08:36.746Z,17.04
2022-09-21T09:11:15.641Z,17.12
2022-09-21T09:13:43.250Z,17.09
2022-09-21T09:16:14.099Z,17.44
2022-09-21T09:19:01.903Z,16.37
2022-09-21T09:21:34.467Z,17.92
2022-09-21T09:24:09.960Z,17.72
2022-09-21T09:26:46.719Z,17.87
2022-09-21T09:29:14.316Z,16.61
2022-09-21T09:31:42.336Z,15.98
2022-09-21T09:34:18.817Z,16.27
2022-09-21T09:36:59.269Z,17.11
2022-09-21T09:39:29.880Z,17.67
2022-09-21T09:42:12.616Z,18.17
2022-09-21T09:44:42.836Z,18.06
2022-09-21T09:47:26.672Z,17.82
2022-09-21T09:49:54.461Z,17.45
2022-09-21T09:52:22.754Z,18.59
2022-09-21T09:54:50.269Z,17.88
2022-09-21T09:57:25.287Z,17.19
2022-09-21T09:59:55.689Z,16.06
2022-09-21T10:02:24.339Z,16.47
2022-09-21T10:05:01.764Z,16.02
2022-09-21T10:07:48.635Z,16.04
2022-09-21T10:10:28.968Z,16.50
2022-09-21T10:12:57.959Z,17.01
2022-09-21T10:15:26.058Z,15.87
2022-09-21T10:18:20.238Z,16.12
2022-09-21T10:21:01.777Z,16.24
2022-09-21T10:23:30.728Z,16.62
2022-09-21T10:26:04.263Z,16.36
2022-09-21T10:28:32.095Z,15.71
2022-09-21T10:31:10.892Z,15.87
2022-09-21T10:33:47.788Z,16.16
2022-09-21T10:36:27.052Z,15.88
2022-09-21T10:38:55.501Z,15.50
2022-09-21T10:41:26.843Z,15.55
2022-09-21T10:43:58.366Z,14.79
2022-09-21T10:46:33.787Z,14.45
2022-09-21T10:49:03.056Z,14.95
2022-09-21T10:51:31.481Z,16.17
2022-09-21T10:53:59.153Z,16.47
2022-09-21T10:56:29.836Z,15.39
2022-09-21T10:59:13.092Z,15.67
2022-09-21T11:01:47.060Z,16.62
2022-09-21T11:04:21.332Z,16.34
2022-09-21T11:06:51.387Z,15.90
2022-09-21T11:09:19.316Z,15.21
2022-09-21T11:11:51.192Z,15.48
2022-09-21T11:14:19.126Z,15.88
2022-09-21T11:17:02.175Z,16.01
2022-09-21T11:19:48.886Z,15.72
2022-09-21T11:22:25.139Z,16.07
2022-09-21T11:25:11.860Z,16.18
2022-09-21T11:27:45.356Z,15.43
2022-09-21T11:30:16.809Z,15.05
2022-09-21T11:33:03.024Z,15.25
2022-09-21T11:35:49.468Z,15.40
2022-09-21T11:38:34.378Z,15.22
2022-09-21T11:41:13.108Z,15.39
2022-09-21T11:43:49.919Z,15.90
2022-09-21T11:46:17.832Z,14.99
2022-09-21T11:49:04.264Z,15.00
2022-09-21T11:51:38.602Z,15.63
2022-09-21T11:54:13.167Z,15.90
2022-09-21T11:56:49.670Z,16.45
2022-09-21T11:59:39.164Z,15.51
2022-09-21T12:02:21.047Z,16.21
2022-09-21T12:05:10.727Z,15.76
2022-09-21T12:08:04.413Z,15.16
2022-09-21T12:10:39.852Z,14.93
2022-09-21T12:13:19.708Z,14.57
2022-09-21T12:16:07.878Z,14.67
2022-09-21T12:18:55.301Z,14.77
2022-09-21T12:21:31.210Z,14.68
2022-09-21T12:24:02.770Z,14.94
2022-09-21T12:26:42.854Z,14.83
2022-09-21T12:29:33.427Z,14.54
2022-09-21T12:32:20.186Z,14.57
2022-09-21T12:34:51.890Z,14.50
2022-09-21T12:37:25.136Z,14.31
2022-09-21T12:39:55.417Z,14.11
2022-09-21T12:42:32.195Z,14.85
2022-09-21T12:45:12.002Z,14.23
2022-09-21T12:48:01.545Z,14.46
2022-09-21T12:51:05.819Z,14.70
2022-09-21T12:53:35.595Z,14.76
2022-09-21T12:56:09.954Z,14.63
2022-09-21T12:58:53.876Z,14.31
2022-09-21T13:01:29.275Z,14.40
2022-09-21T13:04:05.706Z,13.56
2022-09-21T13:06:45.076Z,13.85
2022-09-21T13:09:15.113Z,13.85
2022-09-21T13:11:56.016Z,13.80
2022-09-21T13:14:26.944Z,14.01
2022-09-21T13:17:01.216Z,13.61
2022-09-21T13:19:31.408Z,14.32
2022-09-21T13:22:16.332Z,14.11
2022-09-21T13:24:45.855Z,13.91
2022-09-21T13:27:14.141Z,14.25
2022-09-21T13:29:43.118Z,13.75
2022-09-21T13:32:11.065Z,13.31
2022-09-21T13:34:39.382Z,13.35
2022-09-21T13:37:16.092Z,13.40
2022-09-21T13:39:45.027Z,13.03
2022-09-21T13:42:30.623Z,13.07
2022-09-21T13:45:05.806Z,13.05
2022-09-21T13:47:35.262Z,13.28
2022-09-21T13:50:11.268Z,13.55
2022-09-21T13:52:43.533Z,13.00
2022-09-21T13:55:23.350Z,12.92
2022-09-21T13:57:52.550Z,13.16
2022-09-21T14:00:20.391Z,13.06
2022-09-21T14:02:51.103Z,13.05
2022-09-21T14:05:37.427Z,12.90
2022-09-21T14:08:20.759Z,12.96
2022-09-21T14:10:48.925Z,12.63
2022-09-21T14:13:35.703Z,12.90
2022-09-21T14:16:22.060Z,12.52
2022-09-21T14:18:52.417Z,12.40
2022-09-21T14:21:20.591Z,12.31
2022-09-21T14:24:06.588Z,12.44
2022-09-21T14:26:34.592Z,12.47
2022-09-21T14:29:17.576Z,13.07
2022-09-21T14:31:45.657Z,12.69
2022-09-21T14:34:18.196Z,12.94
2022-09-21T14:36:50.397Z,12.76
2022-09-21T14:39:20.531Z,12.78
2022-09-21T14:41:50.489Z,12.80
2022-09-21T14:44:20.138Z,12.71
2022-09-21T14:46:51.251Z,12.45
2022-09-21T14:49:31.116Z,12.52
2022-09-21T14:52:32.402Z,12.58
2022-09-21T14:55:00.219Z,12.19
2022-09-21T14:57:35.493Z,12.21
2022-09-21T15:00:05.821Z,12.21
2022-09-21T15:02:36.015Z,11.99
2022-09-21T15:05:16.179Z,11.94
2022-09-21T15:08:06.055Z,11.51
2022-09-21T15:10:58.442Z,11.15
2022-09-21T15:13:46.737Z,11.16
2022-09-21T15:16:35.570Z,11.14
2022-09-21T15:19:13.337Z,11.13
2022-09-21T15:21:43.691Z,10.94
2022-09-21T15:24:32.269Z,10.80
2022-09-21T15:27:13.116Z,10.78
2022-09-21T15:29:43.449Z,10.73
2022-09-21T15:32:24.653Z,10.62
2022-09-21T15:35:01.633Z,10.55
2022-09-21T15:37:34.822Z,10.51
2022-09-21T15:40:04.366Z,10.44
2022-09-21T15:42:32.159Z,10.45
2022-09-21T15:45:13.986Z,10.73
2022-09-21T15:47:45.287Z,10.79
2022-09-21T15:50:13.991Z,10.45
2022-09-21T15:52:51.561Z,10.34
2022-09-21T15:55:21.761Z,10.29
2022-09-21T15:57:56.593Z,10.32
2022-09-21T16:00:24.551Z,10.27
2022-09-21T16:03:06.238Z,10.20
2022-09-21T16:05:43.466Z,10.21
2022-09-21T16:08:20.305Z,10.29
2022-09-21T16:10:47.798Z,10.39
2022-09-21T16:13:34.146Z,10.41
2022-09-21T16:16:06.018Z,10.32
2022-09-21T16:18:46.748Z,10.27
2022-09-21T16:21:16.723Z,10.24
2022-09-21T16:23:44.685Z,10.15
2022-09-21T16:26:19.124Z,10.11
2022-09-21T16:28:50.059Z,10.13
2022-09-21T16:31:25.108Z,10.13
2022-09-21T16:33:56.546Z,10.16
2022-09-21T16:36:29.882Z,10.18
2022-09-21T16:38:58.033Z,10.19
2022-09-21T16:41:32.571Z,10.14
2022-09-21T16:44:00.961Z,10.17
2022-09-21T16:46:28.599Z,10.16
2022-09-21T16:48:56.206Z,10.15
2022-09-21T16:51:27.260Z,10.06
2022-09-21T16:53:58.850Z,10.23
2022-09-21T16:56:27.387Z,10.25
2022-09-21T16:58:55.154Z,10.19
2022-09-21T17:01:22.804Z,10.08
2022-09-21T17:03:51.041Z,10.02
2022-09-21T17:06:20.005Z,10.07
2022-09-21T17:08:48.555Z,10.09
2022-09-21T17:11:23.097Z,10.02
2022-09-21T17:13:51.237Z,10.03
2022-09-21T17:16:20.453Z,10.04
2022-09-21T17:18:48.708Z,10.28
2022-09-21T17:21:16.983Z,10.24
2022-09-21T17:23:45.689Z,10.76
2022-09-21T17:26:18.237Z,10.47
2022-09-21T17:28:46.173Z,10.32
2022-09-21T17:31:16.811Z,10.39
2022-09-21T17:33:45.301Z,10.36
2022-09-21T17:36:14.032Z,10.06
2022-09-21T17:38:42.787Z,9.88
2022-09-21T17:41:28.772Z,9.94
2022-09-21T17:44:01.473Z,9.92
2022-09-21T17:47:01.715Z,9.99
2022-09-21T17:49:29.961Z,10.01
2022-09-21T17:52:16.547Z,9.86
2022-09-21T17:54:46.223Z,9.83
2022-09-21T17:57:33.238Z,9.78
2022-09-21T18:00:05.129Z,9.74
2022-09-21T18:02:33.357Z,9.81
2022-09-21T18:05:10.762Z,9.80
2022-09-21T18:07:38.951Z,9.68
2022-09-21T18:10:07.990Z,9.79
2022-09-21T18:12:38.003Z,9.67
2022-09-21T18:15:12.258Z,9.68
2022-09-21T18:17:40.531Z,9.70
2022-09-21T18:20:11.403Z,9.77
2022-09-21T18:22:58.058Z,9.69
2022-09-21T18:25:34.168Z,9.74
2022-09-21T18:28:12.768Z,9.60
2022-09-21T18:33:35.348Z,9.56
2022-09-21T18:36:09.042Z,9.52
2022-09-21T18:38:48.156Z,9.57
2022-09-21T18:41:18.389Z,9.49
2022-09-21T18:44:05.628Z,9.57
2022-09-21T18:46:51.747Z,9.66
2022-09-21T18:49:19.442Z,9.54
2022-09-21T18:51:53.973Z,9.49
2022-09-21T18:54:24.096Z,9.55
2022-09-21T18:56:52.621Z,9.69
2022-09-21T18:59:20.527Z,9.62
2022-09-21T19:01:48.748Z,9.66
2022-09-21T19:04:20.439Z,9.75
2022-09-21T19:07:00.950Z,9.68
2022-09-21T19:09:35.025Z,9.56
2022-09-21T19:12:03.005Z,9.53
2022-09-21T19:14:49.349Z,9.53
2022-09-21T19:17:35.746Z,9.54
2022-09-21T19:20:11.064Z,9.58
2022-09-21T19:22:52.161Z,9.43
2022-09-21T19:25:25.487Z,9.34
2022-09-21T19:28:02.030Z,9.35
2022-09-21T19:30:30.955Z,9.28
2022-09-21T19:32:58.630Z,9.25
2022-09-21T19:35:30.230Z,9.24
2022-09-21T19:37:59.540Z,9.29
2022-09-21T19:40:28.541Z,9.20
2022-09-21T19:43:14.891Z,9.17
2022-09-21T19:46:05.357Z,9.12
2022-09-21T19:48:42.478Z,9.12
2022-09-21T19:51:14.787Z,9.11
2022-09-21T19:54:00.932Z,9.08
2022-09-21T19:56:52.129Z,9.16
2022-09-21T19:59:41.507Z,9.24
2022-09-21T20:02:12.471Z,9.08
2022-09-21T20:04:51.500Z,9.18
2022-09-21T20:07:21.733Z,9.15
2022-09-21T20:10:09.748Z,9.13
2022-09-21T20:12:45.387Z,8.99
2022-09-21T20:15:28.947Z,8.99
2022-09-21T20:18:02.140Z,8.87
2022-09-21T20:20:30.360Z,8.83
2022-09-21T20:22:58.801Z,8.81
2022-09-21T20:25:37.967Z,8.87
2022-09-21T20:28:07.309Z,8.82
2022-09-21T20:30:36.303Z,8.79
2022-09-21T20:33:08.054Z,8.80
2022-09-21T20:35:35.954Z,8.80
2022-09-21T20:38:03.455Z,8.84
2022-09-21T20:40:32.641Z,8.77
2022-09-21T20:43:03.726Z,8.82
2022-09-21T20:45:32.545Z,8.76
2022-09-21T20:48:20.286Z,8.66
2022-09-21T20:50:50.748Z,8.72
2022-09-21T20:53:19.577Z,8.69
2022-09-21T20:55:54.190Z,8.81
2022-09-21T20:58:22.019Z,8.82
2022-09-21T21:00:52.196Z,8.97
2022-09-21T21:03:24.342Z,8.94
2022-09-21T21:05:51.831Z,8.94
2022-09-21T21:08:19.342Z,8.89
2022-09-21T21:10:47.344Z,8.94
2022-09-21T21:13:14.866Z,8.94
2022-09-21T21:15:42.347Z,8.97
2022-09-21T21:18:11.711Z,9.00
2022-09-21T21:20:39.735Z,9.05
2022-09-21T21:23:08.318Z,9.06
2022-09-21T21:25:36.328Z,9.13
2022-09-21T21:28:03.786Z,9.05
2022-09-21T21:30:31.770Z,9.01
2022-09-21T21:32:59.663Z,9.07
2022-09-21T21:35:27.133Z,9.04
2022-09-21T21:37:54.806Z,9.09
2022-09-21T21:40:23.077Z,8.97
2022-09-21T21:42:50.778Z,8.95
2022-09-21T21:45:18.488Z,8.98
2022-09-21T21:47:46.326Z,9.14
2022-09-21T21:50:13.926Z,9.11
2022-09-21T21:52:41.347Z,9.07
2022-09-21T21:55:09.436Z,9.04
2022-09-21T21:57:37.514Z,8.99
2022-09-21T22:00:05.896Z,8.97
2022-09-21T22:02:33.277Z,8.92
2022-09-21T22:05:01.228Z,8.96
2022-09-21T22:07:29.705Z,9.00
2022-09-21T22:09:57.236Z,9.05
2022-09-21T22:12:26.407Z,9.09
2022-09-21T22:14:53.914Z,9.06
2022-09-21T22:17:21.728Z,8.95
2022-09-21T22:19:49.791Z,8.91
2022-09-21T22:22:17.225Z,8.88
2022-09-21T22:24:45.296Z,8.87
2022-09-21T22:27:13.330Z,8.96
2022-09-21T22:29:40.951Z,8.88
2022-09-21T22:32:08.482Z,8.89
2022-09-21T22:34:36.325Z,8.72
2022-09-21T22:37:03.807Z,8.63
2022-09-21T22:42:17.980Z,8.62
2022-09-21T22:44:45.610Z,8.61
2022-09-21T22:47:13.094Z,8.50
2022-09-21T22:49:41.011Z,8.39
2022-09-21T22:52:08.542Z,8.38
2022-09-21T22:54:36.032Z,8.27
2022-09-21T22:57:03.941Z,8.18
2022-09-21T22:59:31.447Z,8.30
2022-09-21T23:01:58.947Z,8.21
2022-09-21T23:04:26.912Z,8.13
2022-09-21T23:06:54.531Z,8.11
2022-09-21T23:09:22.123Z,8.03
2022-09-21T23:11:53.742Z,8.09
2022-09-21T23:14:22.236Z,7.99
2022-09-21T23:16:50.467Z,8.05
2022-09-21T23:19:17.989Z,8.10
2022-09-21T23:21:46.904Z,8.13
2022-09-21T23:24:14.845Z,8.09
2022-09-21T23:26:42.448Z,8.06
2022-09-21T23:29:12.121Z,8.04
2022-09-21T23:31:44.432Z,8.11
2022-09-21T23:34:13.192Z,8.09
2022-09-21T23:36:41.435Z,8.02
2022-09-21T23:39:10.877Z,8.09
2022-09-21T23:41:38.417Z,8.02
2022-09-21T23:44:06.630Z,8.02
2022-09-21T23:46:35.913Z,7.99
2022-09-21T23:49:04.070Z,8.02
2022-09-21T23:51:32.349Z,8.09
2022-09-21T23:54:00.038Z,8.05
2022-09-21T23:56:28.732Z,8.02
2022-09-21T23:58:56.676Z,8.02
